createdAt,value
2023-04-25T00:03:16.635Z,48.18
2023-04-25T00:08:18.878Z,48.17
2023-04-25T00:13:21.407Z,48.86
2023-04-25T00:18:23.669Z,49.03
2023-04-25T00:23:25.768Z,49.17
2023-04-25T00:28:27.718Z,49.87
2023-04-25T00:33:29.891Z,50.13
2023-04-25T00:38:31.961Z,49.65
2023-04-25T00:43:35.072Z,50.36
2023-04-25T00:48:36.966Z,50.34
2023-04-25T00:53:38.948Z,50.15
2023-04-25T00:58:42.805Z,50.10
2023-04-25T01:03:48.141Z,49.79
2023-04-25T01:08:50.160Z,49.89
2023-04-25T01:13:52.777Z,49.71
2023-04-25T01:18:56.138Z,49.98
2023-04-25T01:23:58.312Z,49.85
2023-04-25T01:29:01.044Z,50.11
2023-04-25T01:34:02.991Z,49.63
2023-04-25T01:39:05.049Z,49.56
2023-04-25T01:44:07.006Z,49.37
2023-04-25T01:49:10.151Z,49.27
2023-04-25T01:54:12.598Z,49.53
2023-04-25T01:59:14.504Z,49.07
2023-04-25T02:04:41.083Z,49.09
2023-04-25T02:09:43.985Z,49.73
2023-04-25T02:14:47.601Z,49.59
2023-04-25T02:20:01.050Z,49.80
2023-04-25T02:25:03.452Z,49.56
2023-04-25T02:30:07.695Z,49.45
2023-04-25T02:35:10.328Z,49.81
2023-04-25T02:40:12.474Z,49.20
2023-04-25T02:45:14.433Z,49.57
2023-04-25T02:50:16.323Z,49.18
2023-04-25T02:55:18.424Z,49.75
2023-04-25T03:00:21.475Z,50.21
2023-04-25T03:05:23.426Z,49.78
2023-04-25T03:10:25.467Z,49.17
2023-04-25T03:15:27.723Z,48.61
2023-04-25T03:20:30.016Z,48.58
2023-04-25T03:25:32.540Z,48.07
2023-04-25T03:30:34.541Z,48.38
2023-04-25T03:35:36.952Z,48.77
2023-04-25T03:40:39.254Z,49.16
2023-04-25T03:45:52.146Z,49.13
2023-04-25T03:50:57.002Z,49.01
2023-04-25T03:55:59.557Z,49.34
2023-04-25T04:01:03.846Z,49.21
2023-04-25T04:06:08.300Z,48.79
2023-04-25T04:11:16.229Z,48.10
2023-04-25T04:16:18.184Z,48.34
2023-04-25T04:21:20.300Z,47.94
2023-04-25T04:26:25.375Z,47.63
2023-04-25T04:31:33.871Z,47.52
2023-04-25T04:36:36.109Z,47.92
2023-04-25T04:41:38.430Z,48.07
2023-04-25T04:47:07.508Z,48.72
2023-04-25T04:52:28.110Z,48.76
2023-04-25T04:57:56.527Z,48.78
2023-04-25T05:03:28.577Z,48.39
2023-04-25T05:09:00.130Z,48.60
2023-04-25T05:14:20.462Z,49.12
2023-04-25T05:19:41.107Z,48.75
2023-04-25T05:25:09.067Z,48.64
2023-04-25T05:30:36.899Z,48.69
2023-04-25T05:35:46.451Z,48.61
2023-04-25T05:40:49.452Z,48.86
2023-04-25T05:46:08.097Z,48.51
2023-04-25T05:51:24.890Z,48.12
2023-04-25T05:56:45.117Z,47.88
2023-04-25T06:01:47.815Z,47.89
2023-04-25T06:06:49.871Z,48.00
2023-04-25T06:11:51.661Z,47.72
2023-04-25T06:16:54.158Z,47.49
2023-04-25T06:21:55.994Z,47.77
2023-04-25T06:26:58.111Z,46.66
2023-04-25T06:32:00.676Z,46.35
2023-04-25T06:37:02.788Z,46.49
2023-04-25T06:42:04.911Z,45.96
2023-04-25T06:47:16.548Z,45.46
2023-04-25T06:52:19.189Z,44.88
2023-04-25T06:57:22.029Z,44.59
2023-04-25T07:02:24.560Z,44.15
2023-04-25T07:07:28.338Z,44.20
2023-04-25T07:12:33.013Z,44.26
2023-04-25T07:17:35.458Z,43.81
2023-04-25T07:22:37.426Z,43.85
2023-04-25T07:27:40.445Z,43.91
2023-04-25T07:38:09.240Z,43.72
2023-04-25T07:43:13.482Z,43.11
2023-04-25T07:48:23.780Z,41.74
2023-04-25T07:53:28.172Z,41.50
2023-04-25T07:58:35.163Z,40.68
2023-04-25T08:03:40.065Z,39.85
2023-04-25T08:08:49.504Z,40.16
2023-04-25T08:13:54.577Z,39.65
2023-04-25T08:18:58.077Z,39.66
2023-04-25T08:24:00.105Z,39.64
2023-04-25T08:29:06.715Z,39.38
2023-04-25T08:34:11.001Z,39.88
2023-04-25T08:39:18.559Z,39.88
2023-04-25T08:44:37.726Z,39.91
2023-04-25T08:49:45.784Z,39.86
2023-04-25T08:54:50.188Z,40.52
2023-04-25T08:59:54.200Z,40.71
2023-04-25T09:04:58.522Z,40.44
2023-04-25T09:10:03.005Z,40.80
2023-04-25T09:15:12.385Z,41.02
2023-04-25T09:20:35.333Z,41.61
2023-04-25T09:25:40.387Z,41.59
2023-04-25T09:30:47.178Z,41.93
2023-04-25T09:36:12.302Z,41.98
2023-04-25T09:41:32.114Z,42.06
2023-04-25T09:46:39.938Z,42.01
2023-04-25T09:52:01.336Z,42.39
2023-04-25T09:57:19.192Z,42.17
2023-04-25T10:02:28.935Z,41.88
2023-04-25T10:07:39.445Z,41.54
2023-04-25T10:12:47.052Z,41.84
2023-04-25T10:17:51.126Z,41.64
2023-04-25T10:22:57.671Z,41.51
2023-04-25T10:28:02.166Z,41.64
2023-04-25T10:33:18.659Z,41.73
2023-04-25T10:38:20.771Z,41.81
2023-04-25T10:43:38.957Z,42.06
2023-04-25T10:48:48.064Z,42.45
2023-04-25T10:53:56.308Z,43.02
2023-04-25T10:59:16.802Z,43.36
2023-04-25T11:04:26.551Z,43.70
2023-04-25T11:09:29.161Z,43.80
2023-04-25T11:14:31.062Z,44.04
2023-04-25T11:19:33.396Z,44.21
2023-04-25T11:24:37.443Z,44.63
2023-04-25T11:29:39.273Z,44.65
2023-04-25T11:34:44.647Z,44.98
2023-04-25T11:39:49.840Z,44.70
2023-04-25T11:44:52.915Z,44.64
2023-04-25T11:49:55.205Z,44.38
2023-04-25T11:54:58.180Z,44.59
2023-04-25T12:00:27.024Z,44.60
2023-04-25T12:05:33.786Z,45.16
2023-04-25T12:10:39.830Z,44.98
2023-04-25T12:15:42.090Z,44.33
2023-04-25T12:20:44.245Z,44.60
2023-04-25T12:25:48.252Z,44.21
2023-04-25T12:31:08.717Z,44.16
2023-04-25T12:36:12.733Z,43.85
2023-04-25T12:41:14.566Z,43.43
2023-04-25T12:46:16.477Z,43.05
2023-04-25T12:51:18.345Z,42.64
2023-04-25T12:56:22.328Z,42.30
2023-04-25T13:01:27.590Z,42.12
2023-04-25T13:06:31.120Z,42.00
2023-04-25T13:11:32.888Z,41.95
2023-04-25T13:16:34.829Z,41.96
2023-04-25T13:21:36.931Z,42.42
2023-04-25T13:26:38.952Z,42.24
2023-04-25T13:31:40.757Z,42.22
2023-04-25T13:36:42.665Z,42.36
2023-04-25T13:41:44.430Z,42.36
2023-04-25T13:46:47.954Z,42.00
2023-04-25T13:51:49.852Z,42.00
2023-04-25T13:56:51.749Z,42.69
2023-04-25T14:01:53.666Z,42.55
2023-04-25T14:06:56.295Z,42.66
2023-04-25T14:11:58.173Z,42.88
2023-04-25T14:17:00.075Z,42.68
2023-04-25T14:22:01.949Z,42.28
2023-04-25T14:27:04.449Z,42.52
2023-04-25T14:32:06.562Z,42.26
2023-04-25T14:37:08.375Z,42.39
2023-04-25T14:42:10.138Z,42.55
2023-04-25T14:47:12.063Z,42.15
2023-04-25T14:52:13.805Z,41.56
2023-04-25T14:57:16.385Z,41.62
2023-04-25T15:02:18.749Z,41.59
2023-04-25T15:07:20.728Z,41.62
2023-04-25T15:12:22.614Z,41.75
2023-04-25T15:17:24.427Z,41.43
2023-04-25T15:22:26.441Z,41.26
2023-04-25T15:27:28.399Z,41.15
2023-04-25T15:32:30.179Z,40.82
2023-04-25T15:37:32.289Z,40.36
2023-04-25T15:42:34.129Z,40.34
2023-04-25T15:47:36.973Z,39.99
2023-04-25T15:52:39.355Z,39.68
2023-04-25T15:57:43.858Z,39.56
2023-04-25T16:02:47.021Z,39.76
2023-04-25T16:07:49.404Z,39.64
2023-04-25T16:12:51.408Z,39.79
2023-04-25T16:17:53.258Z,39.55
2023-04-25T16:22:55.617Z,39.46
2023-04-25T16:27:57.441Z,39.67
2023-04-25T16:32:59.330Z,39.63
2023-04-25T16:38:01.223Z,39.55
2023-04-25T16:43:03.031Z,39.80
2023-04-25T16:48:04.925Z,39.47
2023-04-25T16:53:06.757Z,39.37
2023-04-25T16:58:11.293Z,39.05
2023-04-25T17:03:13.392Z,38.53
2023-04-25T17:08:15.287Z,38.14
2023-04-25T17:13:17.221Z,37.02
2023-04-25T17:18:19.048Z,37.17
2023-04-25T17:23:21.353Z,37.42
2023-04-25T17:28:23.237Z,37.40
2023-04-25T17:33:27.139Z,37.03
2023-04-25T17:38:29.070Z,37.57
2023-04-25T17:43:31.536Z,37.63
2023-04-25T17:48:33.343Z,37.52
2023-04-25T17:53:35.930Z,37.76
2023-04-25T17:58:38.224Z,37.66
2023-04-25T18:03:40.609Z,37.86
2023-04-25T18:08:42.526Z,37.95
2023-04-25T18:13:44.305Z,38.04
2023-04-25T18:18:53.284Z,38.07
2023-04-25T18:23:55.704Z,37.75
2023-04-25T18:28:57.479Z,38.03
2023-04-25T18:33:59.564Z,38.28
2023-04-25T18:39:15.111Z,38.44
2023-04-25T18:44:23.561Z,38.12
2023-04-25T18:49:25.391Z,38.96
2023-04-25T18:54:27.285Z,38.66
2023-04-25T18:59:29.232Z,38.94
2023-04-25T19:04:31.465Z,39.10
2023-04-25T19:09:33.571Z,39.50
2023-04-25T19:14:36.267Z,39.15
2023-04-25T19:19:38.403Z,39.66
2023-04-25T19:24:40.968Z,39.38
2023-04-25T19:29:48.121Z,39.53
2023-04-25T19:34:50.222Z,39.85
2023-04-25T19:39:52.041Z,39.86
2023-04-25T19:44:53.955Z,39.82
2023-04-25T19:49:55.767Z,40.51
2023-04-25T19:55:02.275Z,39.70
2023-04-25T20:00:12.072Z,40.54
2023-04-25T20:05:18.498Z,39.92
2023-04-25T20:10:20.496Z,39.82
2023-04-25T20:15:22.356Z,40.18
2023-04-25T20:20:24.203Z,39.99
2023-04-25T20:25:26.098Z,40.09
2023-04-25T20:30:27.953Z,40.44
2023-04-25T20:35:31.417Z,41.14
2023-04-25T20:40:33.210Z,40.55
2023-04-25T20:45:36.211Z,40.25
2023-04-25T20:50:38.619Z,40.62
2023-04-25T20:55:41.972Z,41.38
2023-04-25T21:00:44.142Z,41.38
2023-04-25T21:05:47.004Z,41.87
2023-04-25T21:10:49.541Z,42.35
2023-04-25T21:15:53.009Z,42.53
2023-04-25T21:20:54.834Z,42.45
2023-04-25T21:25:57.234Z,42.44
2023-04-25T21:30:59.469Z,42.92
2023-04-25T21:36:01.283Z,42.88
2023-04-25T21:41:03.378Z,42.54
2023-04-25T21:51:09.969Z,42.54
2023-04-25T21:56:12.502Z,42.88
2023-04-25T22:01:15.854Z,42.91
2023-04-25T22:06:17.733Z,42.79
2023-04-25T22:11:19.580Z,43.02
2023-04-25T22:16:21.399Z,43.01
2023-04-25T22:21:24.460Z,43.00
2023-04-25T22:26:26.257Z,43.03
2023-04-25T22:31:29.120Z,43.42
2023-04-25T22:36:30.954Z,44.03
2023-04-25T22:41:32.720Z,45.26
2023-04-25T22:46:34.502Z,45.38
2023-04-25T22:51:37.114Z,45.12
2023-04-25T22:56:38.909Z,45.11
2023-04-25T23:01:40.754Z,45.77
2023-04-25T23:06:42.795Z,45.60
2023-04-25T23:11:44.842Z,46.54
2023-04-25T23:16:46.955Z,46.22
2023-04-25T23:21:48.958Z,46.26
2023-04-25T23:26:50.823Z,46.43
2023-04-25T23:31:52.631Z,46.73
2023-04-25T23:36:54.396Z,46.61
2023-04-25T23:41:56.886Z,46.91
2023-04-25T23:46:58.650Z,46.79
2023-04-25T23:52:00.742Z,47.21
2023-04-25T23:57:04.522Z,47.17
